sensor_id;sensor_type;location;lat;lon;timestamp;P1;durP1;ratioP1;P2;durP2;ratioP2
37067;SDS011;22982;42.848;25.468;2023-07-31T00:00:06;10.05;;;9.05;;
37067;SDS011;22982;42.848;25.468;2023-07-31T00:05:10;10.10;;;8.98;;
37067;SDS011;22982;42.848;25.468;2023-07-31T00:10:13;10.15;;;9.23;;
37067;SDS011;22982;42.848;25.468;2023-07-31T00:15:16;12.38;;;10.02;;
37067;SDS011;22982;42.848;25.468;2023-07-31T00:20:18;11.68;;;10.45;;
37067;SDS011;22982;42.848;25.468;2023-07-31T00:25:21;14.30;;;10.48;;
37067;SDS011;22982;42.848;25.468;2023-07-31T00:30:24;9.82;;;8.82;;
37067;SDS011;22982;42.848;25.468;2023-07-31T00:35:28;12.73;;;10.07;;
37067;SDS011;22982;42.848;25.468;2023-07-31T00:40:36;12.57;;;10.38;;
37067;SDS011;22982;42.848;25.468;2023-07-31T00:45:39;11.57;;;10.48;;
37067;SDS011;22982;42.848;25.468;2023-07-31T00:50:43;13.60;;;11.23;;
37067;SDS011;22982;42.848;25.468;2023-07-31T00:55:45;11.75;;;10.50;;
37067;SDS011;22982;42.848;25.468;2023-07-31T01:00:49;11.82;;;10.73;;
37067;SDS011;22982;42.848;25.468;2023-07-31T01:11:33;15.13;;;13.60;;
37067;SDS011;22982;42.848;25.468;2023-07-31T01:16:36;14.15;;;12.75;;
37067;SDS011;22982;42.848;25.468;2023-07-31T01:21:41;18.17;;;16.48;;
37067;SDS011;22982;42.848;25.468;2023-07-31T01:26:53;15.02;;;13.63;;
37067;SDS011;22982;42.848;25.468;2023-07-31T01:32:01;15.30;;;13.77;;
37067;SDS011;22982;42.848;25.468;2023-07-31T01:37:05;14.05;;;12.65;;
37067;SDS011;22982;42.848;25.468;2023-07-31T01:42:08;14.27;;;12.95;;
37067;SDS011;22982;42.848;25.468;2023-07-31T01:47:11;15.32;;;13.43;;
37067;SDS011;22982;42.848;25.468;2023-07-31T01:52:15;15.23;;;13.82;;
37067;SDS011;22982;42.848;25.468;2023-07-31T01:57:17;15.70;;;14.30;;
37067;SDS011;22982;42.848;25.468;2023-07-31T02:02:21;18.10;;;16.20;;
37067;SDS011;22982;42.848;25.468;2023-07-31T02:07:25;15.50;;;13.82;;
37067;SDS011;22982;42.848;25.468;2023-07-31T02:12:29;15.90;;;14.20;;
37067;SDS011;22982;42.848;25.468;2023-07-31T02:17:33;16.25;;;14.65;;
37067;SDS011;22982;42.848;25.468;2023-07-31T02:22:37;16.83;;;15.07;;
37067;SDS011;22982;42.848;25.468;2023-07-31T02:27:40;17.15;;;15.48;;
37067;SDS011;22982;42.848;25.468;2023-07-31T02:32:42;20.10;;;18.10;;
37067;SDS011;22982;42.848;25.468;2023-07-31T02:37:45;19.20;;;17.30;;
37067;SDS011;22982;42.848;25.468;2023-07-31T02:42:47;21.33;;;19.15;;
37067;SDS011;22982;42.848;25.468;2023-07-31T02:47:50;21.27;;;19.25;;
37067;SDS011;22982;42.848;25.468;2023-07-31T02:52:55;22.33;;;20.10;;
37067;SDS011;22982;42.848;25.468;2023-07-31T02:57:58;25.17;;;22.73;;
37067;SDS011;22982;42.848;25.468;2023-07-31T03:03:00;23.95;;;21.52;;
37067;SDS011;22982;42.848;25.468;2023-07-31T03:08:03;22.70;;;20.50;;
37067;SDS011;22982;42.848;25.468;2023-07-31T03:13:06;24.75;;;22.25;;
37067;SDS011;22982;42.848;25.468;2023-07-31T03:18:09;26.90;;;24.02;;
37067;SDS011;22982;42.848;25.468;2023-07-31T03:23:12;28.17;;;25.27;;
37067;SDS011;22982;42.848;25.468;2023-07-31T03:28:15;28.30;;;25.20;;
37067;SDS011;22982;42.848;25.468;2023-07-31T03:33:17;27.00;;;24.40;;
37067;SDS011;22982;42.848;25.468;2023-07-31T03:38:20;28.33;;;25.45;;
37067;SDS011;22982;42.848;25.468;2023-07-31T03:43:23;27.25;;;24.45;;
37067;SDS011;22982;42.848;25.468;2023-07-31T03:48:27;26.17;;;23.60;;
37067;SDS011;22982;42.848;25.468;2023-07-31T03:53:30;30.35;;;27.15;;
37067;SDS011;22982;42.848;25.468;2023-07-31T03:58:32;30.55;;;27.52;;
37067;SDS011;22982;42.848;25.468;2023-07-31T04:03:37;28.15;;;25.45;;
37067;SDS011;22982;42.848;25.468;2023-07-31T04:08:39;27.00;;;24.30;;
37067;SDS011;22982;42.848;25.468;2023-07-31T04:13:42;27.83;;;25.13;;
37067;SDS011;22982;42.848;25.468;2023-07-31T04:18:45;28.05;;;25.02;;
37067;SDS011;22982;42.848;25.468;2023-07-31T04:23:47;24.73;;;22.30;;
37067;SDS011;22982;42.848;25.468;2023-07-31T04:28:50;25.17;;;22.58;;
37067;SDS011;22982;42.848;25.468;2023-07-31T04:33:53;26.38;;;23.77;;
37067;SDS011;22982;42.848;25.468;2023-07-31T04:38:56;25.30;;;22.80;;
37067;SDS011;22982;42.848;25.468;2023-07-31T04:43:58;23.13;;;20.83;;
37067;SDS011;22982;42.848;25.468;2023-07-31T04:49:02;27.20;;;24.50;;
37067;SDS011;22982;42.848;25.468;2023-07-31T04:54:04;24.20;;;21.77;;
37067;SDS011;22982;42.848;25.468;2023-07-31T04:59:08;21.38;;;19.05;;
37067;SDS011;22982;42.848;25.468;2023-07-31T05:04:13;19.00;;;17.10;;
37067;SDS011;22982;42.848;25.468;2023-07-31T05:09:17;19.88;;;17.85;;
37067;SDS011;22982;42.848;25.468;2023-07-31T05:14:20;20.55;;;18.55;;
37067;SDS011;22982;42.848;25.468;2023-07-31T05:19:23;18.10;;;16.38;;
37067;SDS011;22982;42.848;25.468;2023-07-31T05:24:25;22.73;;;20.33;;
37067;SDS011;22982;42.848;25.468;2023-07-31T05:29:29;22.77;;;20.52;;
37067;SDS011;22982;42.848;25.468;2023-07-31T05:34:31;23.33;;;21.05;;
37067;SDS011;22982;42.848;25.468;2023-07-31T06:56:16;18.88;;;16.90;;
37067;SDS011;22982;42.848;25.468;2023-07-31T07:01:19;20.45;;;18.35;;
37067;SDS011;22982;42.848;25.468;2023-07-31T07:06:21;20.17;;;18.17;;
37067;SDS011;22982;42.848;25.468;2023-07-31T07:11:25;20.67;;;18.52;;
37067;SDS011;22982;42.848;25.468;2023-07-31T07:16:28;20.15;;;18.05;;
37067;SDS011;22982;42.848;25.468;2023-07-31T07:21:31;21.85;;;16.65;;
37067;SDS011;22982;42.848;25.468;2023-07-31T07:26:33;20.05;;;18.10;;
37067;SDS011;22982;42.848;25.468;2023-07-31T07:31:36;18.58;;;16.65;;
37067;SDS011;22982;42.848;25.468;2023-07-31T07:36:39;17.35;;;15.30;;
37067;SDS011;22982;42.848;25.468;2023-07-31T07:41:42;17.13;;;15.32;;
37067;SDS011;22982;42.848;25.468;2023-07-31T07:46:45;16.50;;;14.82;;
37067;SDS011;22982;42.848;25.468;2023-07-31T07:51:48;20.15;;;16.30;;
37067;SDS011;22982;42.848;25.468;2023-07-31T07:56:51;17.20;;;15.32;;
37067;SDS011;22982;42.848;25.468;2023-07-31T08:01:54;15.40;;;13.80;;
37067;SDS011;22982;42.848;25.468;2023-07-31T08:06:57;13.70;;;12.38;;
37067;SDS011;22982;42.848;25.468;2023-07-31T08:12:00;14.15;;;12.13;;
37067;SDS011;22982;42.848;25.468;2023-07-31T08:17:05;12.85;;;11.63;;
37067;SDS011;22982;42.848;25.468;2023-07-31T08:22:08;18.30;;;16.40;;
37067;SDS011;22982;42.848;25.468;2023-07-31T08:27:11;12.20;;;11.05;;
37067;SDS011;22982;42.848;25.468;2023-07-31T08:32:14;12.85;;;11.57;;
37067;SDS011;22982;42.848;25.468;2023-07-31T08:37:16;10.65;;;9.55;;
37067;SDS011;22982;42.848;25.468;2023-07-31T08:42:20;9.80;;;8.02;;
37067;SDS011;22982;42.848;25.468;2023-07-31T08:47:23;9.65;;;8.15;;
37067;SDS011;22982;42.848;25.468;2023-07-31T08:52:26;9.00;;;8.20;;
37067;SDS011;22982;42.848;25.468;2023-07-31T08:57:29;8.77;;;7.88;;
37067;SDS011;22982;42.848;25.468;2023-07-31T09:02:37;9.18;;;8.27;;
37067;SDS011;22982;42.848;25.468;2023-07-31T09:07:47;9.25;;;8.35;;
37067;SDS011;22982;42.848;25.468;2023-07-31T09:12:53;8.10;;;7.28;;
37067;SDS011;22982;42.848;25.468;2023-07-31T09:18:01;8.43;;;7.63;;
37067;SDS011;22982;42.848;25.468;2023-07-31T09:23:05;8.05;;;7.25;;
37067;SDS011;22982;42.848;25.468;2023-07-31T09:28:13;13.23;;;11.70;;
37067;SDS011;22982;42.848;25.468;2023-07-31T09:33:34;10.52;;;7.30;;
37067;SDS011;22982;42.848;25.468;2023-07-31T09:39:01;7.03;;;6.35;;
37067;SDS011;22982;42.848;25.468;2023-07-31T09:44:05;6.68;;;5.97;;
37067;SDS011;22982;42.848;25.468;2023-07-31T09:49:11;9.43;;;6.10;;
37067;SDS011;22982;42.848;25.468;2023-07-31T09:54:15;6.30;;;5.70;;
37067;SDS011;22982;42.848;25.468;2023-07-31T09:59:20;8.18;;;5.47;;
37067;SDS011;22982;42.848;25.468;2023-07-31T10:04:26;6.18;;;5.00;;
37067;SDS011;22982;42.848;25.468;2023-07-31T10:09:29;6.70;;;5.72;;
37067;SDS011;22982;42.848;25.468;2023-07-31T10:14:34;6.47;;;4.97;;
37067;SDS011;22982;42.848;25.468;2023-07-31T10:19:38;6.20;;;5.60;;
37067;SDS011;22982;42.848;25.468;2023-07-31T10:24:42;5.15;;;4.68;;
37067;SDS011;22982;42.848;25.468;2023-07-31T10:29:45;5.55;;;4.50;;
37067;SDS011;22982;42.848;25.468;2023-07-31T10:34:50;4.80;;;4.38;;
37067;SDS011;22982;42.848;25.468;2023-07-31T10:39:58;4.80;;;4.05;;
37067;SDS011;22982;42.848;25.468;2023-07-31T10:45:04;6.10;;;4.57;;
37067;SDS011;22982;42.848;25.468;2023-07-31T10:50:14;4.35;;;3.95;;
37067;SDS011;22982;42.848;25.468;2023-07-31T10:55:26;4.60;;;4.20;;
37067;SDS011;22982;42.848;25.468;2023-07-31T11:05:41;4.72;;;4.32;;
37067;SDS011;22982;42.848;25.468;2023-07-31T11:16:03;4.68;;;4.28;;
37067;SDS011;22982;42.848;25.468;2023-07-31T11:21:07;4.95;;;4.53;;
37067;SDS011;22982;42.848;25.468;2023-07-31T11:26:11;4.35;;;3.95;;
37067;SDS011;22982;42.848;25.468;2023-07-31T11:31:14;4.75;;;4.30;;
37067;SDS011;22982;42.848;25.468;2023-07-31T11:36:19;4.40;;;4.00;;
37067;SDS011;22982;42.848;25.468;2023-07-31T11:41:22;5.10;;;4.30;;
37067;SDS011;22982;42.848;25.468;2023-07-31T11:46:25;5.65;;;4.57;;
37067;SDS011;22982;42.848;25.468;2023-07-31T11:51:28;4.65;;;4.25;;
37067;SDS011;22982;42.848;25.468;2023-07-31T11:56:31;5.05;;;4.43;;
37067;SDS011;22982;42.848;25.468;2023-07-31T12:01:35;5.80;;;3.78;;
37067;SDS011;22982;42.848;25.468;2023-07-31T12:06:38;4.68;;;3.50;;
37067;SDS011;22982;42.848;25.468;2023-07-31T12:11:45;3.25;;;2.97;;
37067;SDS011;22982;42.848;25.468;2023-07-31T12:16:59;4.18;;;3.60;;
37067;SDS011;22982;42.848;25.468;2023-07-31T12:22:13;3.95;;;3.30;;
37067;SDS011;22982;42.848;25.468;2023-07-31T12:27:17;4.15;;;3.75;;
37067;SDS011;22982;42.848;25.468;2023-07-31T12:32:24;4.20;;;3.80;;
37067;SDS011;22982;42.848;25.468;2023-07-31T12:37:27;4.65;;;4.25;;
37067;SDS011;22982;42.848;25.468;2023-07-31T12:42:31;4.68;;;4.28;;
37067;SDS011;22982;42.848;25.468;2023-07-31T12:47:33;5.15;;;4.72;;
37067;SDS011;22982;42.848;25.468;2023-07-31T12:52:36;5.10;;;4.70;;
37067;SDS011;22982;42.848;25.468;2023-07-31T12:57:39;4.50;;;4.10;;
37067;SDS011;22982;42.848;25.468;2023-07-31T13:02:42;7.70;;;4.95;;
37067;SDS011;22982;42.848;25.468;2023-07-31T13:07:46;5.20;;;4.75;;
37067;SDS011;22982;42.848;25.468;2023-07-31T13:12:51;5.50;;;5.00;;
37067;SDS011;22982;42.848;25.468;2023-07-31T13:17:54;5.65;;;5.15;;
37067;SDS011;22982;42.848;25.468;2023-07-31T13:22:57;5.90;;;4.75;;
37067;SDS011;22982;42.848;25.468;2023-07-31T13:28:00;7.07;;;5.22;;
37067;SDS011;22982;42.848;25.468;2023-07-31T13:33:04;6.35;;;5.22;;
37067;SDS011;22982;42.848;25.468;2023-07-31T13:38:18;5.57;;;5.07;;
37067;SDS011;22982;42.848;25.468;2023-07-31T13:43:21;7.80;;;4.88;;
37067;SDS011;22982;42.848;25.468;2023-07-31T13:48:24;6.10;;;5.55;;
37067;SDS011;22982;42.848;25.468;2023-07-31T13:53:27;6.57;;;5.18;;
37067;SDS011;22982;42.848;25.468;2023-07-31T13:58:29;5.45;;;4.95;;
37067;SDS011;22982;42.848;25.468;2023-07-31T14:03:33;5.30;;;4.80;;
37067;SDS011;22982;42.848;25.468;2023-07-31T14:08:35;5.97;;;5.25;;
37067;SDS011;22982;42.848;25.468;2023-07-31T14:13:38;6.47;;;5.78;;
37067;SDS011;22982;42.848;25.468;2023-07-31T14:18:41;6.43;;;5.82;;
37067;SDS011;22982;42.848;25.468;2023-07-31T14:23:44;7.13;;;6.43;;
37067;SDS011;22982;42.848;25.468;2023-07-31T14:28:47;7.43;;;6.72;;
37067;SDS011;22982;42.848;25.468;2023-07-31T14:33:49;7.25;;;6.55;;
37067;SDS011;22982;42.848;25.468;2023-07-31T14:38:53;7.30;;;6.60;;
37067;SDS011;22982;42.848;25.468;2023-07-31T14:43:55;6.57;;;5.90;;
37067;SDS011;22982;42.848;25.468;2023-07-31T14:48:58;7.63;;;6.32;;
37067;SDS011;22982;42.848;25.468;2023-07-31T14:54:01;7.32;;;6.30;;
37067;SDS011;22982;42.848;25.468;2023-07-31T14:59:03;6.65;;;5.90;;
37067;SDS011;22982;42.848;25.468;2023-07-31T15:04:07;7.18;;;5.93;;
37067;SDS011;22982;42.848;25.468;2023-07-31T15:09:09;5.60;;;5.10;;
37067;SDS011;22982;42.848;25.468;2023-07-31T15:14:12;7.05;;;6.35;;
37067;SDS011;22982;42.848;25.468;2023-07-31T15:19:17;7.63;;;5.60;;
37067;SDS011;22982;42.848;25.468;2023-07-31T15:24:21;7.80;;;6.28;;
37067;SDS011;22982;42.848;25.468;2023-07-31T15:29:23;8.85;;;6.63;;
37067;SDS011;22982;42.848;25.468;2023-07-31T15:34:27;7.47;;;6.43;;
37067;SDS011;22982;42.848;25.468;2023-07-31T15:39:29;8.23;;;6.95;;
37067;SDS011;22982;42.848;25.468;2023-07-31T15:44:32;9.48;;;8.30;;
37067;SDS011;22982;42.848;25.468;2023-07-31T15:49:35;9.82;;;7.20;;
37067;SDS011;22982;42.848;25.468;2023-07-31T15:54:38;8.07;;;7.28;;
37067;SDS011;22982;42.848;25.468;2023-07-31T15:59:40;9.43;;;8.18;;
37067;SDS011;22982;42.848;25.468;2023-07-31T16:04:43;8.68;;;7.85;;
37067;SDS011;22982;42.848;25.468;2023-07-31T16:09:46;10.27;;;8.35;;
37067;SDS011;22982;42.848;25.468;2023-07-31T16:14:48;9.45;;;8.45;;
37067;SDS011;22982;42.848;25.468;2023-07-31T16:19:52;14.38;;;10.23;;
37067;SDS011;22982;42.848;25.468;2023-07-31T16:24:54;13.35;;;10.88;;
37067;SDS011;22982;42.848;25.468;2023-07-31T16:29:57;14.18;;;11.15;;
37067;SDS011;22982;42.848;25.468;2023-07-31T16:35:02;12.93;;;10.20;;
37067;SDS011;22982;42.848;25.468;2023-07-31T16:40:06;12.93;;;11.50;;
37067;SDS011;22982;42.848;25.468;2023-07-31T16:45:10;12.82;;;11.52;;
37067;SDS011;22982;42.848;25.468;2023-07-31T16:50:12;12.55;;;11.25;;
37067;SDS011;22982;42.848;25.468;2023-07-31T16:55:14;14.75;;;13.30;;
37067;SDS011;22982;42.848;25.468;2023-07-31T17:00:17;13.90;;;12.32;;
37067;SDS011;22982;42.848;25.468;2023-07-31T17:05:20;13.45;;;12.05;;
37067;SDS011;22982;42.848;25.468;2023-07-31T17:10:23;13.55;;;12.15;;
37067;SDS011;22982;42.848;25.468;2023-07-31T17:15:26;13.88;;;11.75;;
37067;SDS011;22982;42.848;25.468;2023-07-31T17:20:30;18.70;;;13.68;;
37067;SDS011;22982;42.848;25.468;2023-07-31T17:25:34;17.48;;;13.25;;
37067;SDS011;22982;42.848;25.468;2023-07-31T17:30:37;16.80;;;14.40;;
37067;SDS011;22982;42.848;25.468;2023-07-31T17:35:40;17.17;;;13.07;;
37067;SDS011;22982;42.848;25.468;2023-07-31T17:40:42;13.82;;;12.43;;
37067;SDS011;22982;42.848;25.468;2023-07-31T17:45:46;14.10;;;12.00;;
37067;SDS011;22982;42.848;25.468;2023-07-31T17:50:51;14.75;;;13.25;;
37067;SDS011;22982;42.848;25.468;2023-07-31T17:55:55;15.02;;;13.18;;
37067;SDS011;22982;42.848;25.468;2023-07-31T18:00:58;16.80;;;11.50;;
37067;SDS011;22982;42.848;25.468;2023-07-31T18:06:00;14.27;;;12.77;;
37067;SDS011;22982;42.848;25.468;2023-07-31T18:11:03;13.52;;;11.80;;
37067;SDS011;22982;42.848;25.468;2023-07-31T18:16:07;13.18;;;11.70;;
37067;SDS011;22982;42.848;25.468;2023-07-31T18:21:10;13.35;;;11.90;;
37067;SDS011;22982;42.848;25.468;2023-07-31T18:26:12;14.50;;;12.93;;
37067;SDS011;22982;42.848;25.468;2023-07-31T18:31:15;16.63;;;13.00;;
37067;SDS011;22982;42.848;25.468;2023-07-31T18:36:18;15.02;;;12.38;;
37067;SDS011;22982;42.848;25.468;2023-07-31T18:41:21;16.00;;;13.25;;
37067;SDS011;22982;42.848;25.468;2023-07-31T18:46:24;16.13;;;12.40;;
37067;SDS011;22982;42.848;25.468;2023-07-31T18:51:26;17.40;;;15.35;;
37067;SDS011;22982;42.848;25.468;2023-07-31T18:56:29;15.57;;;13.88;;
37067;SDS011;22982;42.848;25.468;2023-07-31T19:07:39;15.52;;;13.18;;
37067;SDS011;22982;42.848;25.468;2023-07-31T19:12:43;20.23;;;16.80;;
37067;SDS011;22982;42.848;25.468;2023-07-31T19:17:45;16.48;;;14.73;;
37067;SDS011;22982;42.848;25.468;2023-07-31T19:22:48;14.43;;;12.93;;
37067;SDS011;22982;42.848;25.468;2023-07-31T19:27:51;15.93;;;14.02;;
37067;SDS011;22982;42.848;25.468;2023-07-31T19:32:58;16.63;;;14.93;;
37067;SDS011;22982;42.848;25.468;2023-07-31T19:38:01;15.90;;;14.30;;
37067;SDS011;22982;42.848;25.468;2023-07-31T19:43:03;15.80;;;14.05;;
37067;SDS011;22982;42.848;25.468;2023-07-31T19:48:06;14.60;;;13.10;;
37067;SDS011;22982;42.848;25.468;2023-07-31T19:53:10;17.73;;;14.73;;
37067;SDS011;22982;42.848;25.468;2023-07-31T19:58:13;15.45;;;13.85;;
37067;SDS011;22982;42.848;25.468;2023-07-31T20:03:16;15.88;;;14.20;;
37067;SDS011;22982;42.848;25.468;2023-07-31T20:08:18;15.75;;;13.60;;
37067;SDS011;22982;42.848;25.468;2023-07-31T20:13:21;16.67;;;14.27;;
37067;SDS011;22982;42.848;25.468;2023-07-31T20:18:24;15.10;;;13.60;;
37067;SDS011;22982;42.848;25.468;2023-07-31T20:23:26;17.10;;;15.07;;
37067;SDS011;22982;42.848;25.468;2023-07-31T20:28:43;19.83;;;16.40;;
37067;SDS011;22982;42.848;25.468;2023-07-31T20:33:46;17.42;;;15.68;;
37067;SDS011;22982;42.848;25.468;2023-07-31T20:38:49;17.48;;;15.63;;
37067;SDS011;22982;42.848;25.468;2023-07-31T20:43:51;20.27;;;17.13;;
37067;SDS011;22982;42.848;25.468;2023-07-31T20:48:53;24.63;;;20.48;;
37067;SDS011;22982;42.848;25.468;2023-07-31T20:53:56;25.15;;;20.27;;
37067;SDS011;22982;42.848;25.468;2023-07-31T20:58:58;23.95;;;20.10;;
37067;SDS011;22982;42.848;25.468;2023-07-31T21:04:01;19.88;;;16.90;;
37067;SDS011;22982;42.848;25.468;2023-07-31T21:09:03;20.67;;;18.45;;
37067;SDS011;22982;42.848;25.468;2023-07-31T21:14:06;22.35;;;19.27;;
37067;SDS011;22982;42.848;25.468;2023-07-31T21:19:09;21.10;;;18.15;;
37067;SDS011;22982;42.848;25.468;2023-07-31T21:24:12;24.35;;;18.17;;
37067;SDS011;22982;42.848;25.468;2023-07-31T21:29:14;22.40;;;17.48;;
37067;SDS011;22982;42.848;25.468;2023-07-31T21:34:18;23.13;;;20.38;;
37067;SDS011;22982;42.848;25.468;2023-07-31T21:39:20;25.55;;;19.45;;
37067;SDS011;22982;42.848;25.468;2023-07-31T21:44:23;24.77;;;20.08;;
37067;SDS011;22982;42.848;25.468;2023-07-31T21:49:26;23.58;;;17.15;;
37067;SDS011;22982;42.848;25.468;2023-07-31T21:54:30;22.73;;;19.42;;
37067;SDS011;22982;42.848;25.468;2023-07-31T21:59:32;24.30;;;19.10;;
37067;SDS011;22982;42.848;25.468;2023-07-31T22:04:38;24.88;;;18.85;;
37067;SDS011;22982;42.848;25.468;2023-07-31T22:09:43;25.75;;;19.77;;
37067;SDS011;22982;42.848;25.468;2023-07-31T22:14:46;25.02;;;20.23;;
37067;SDS011;22982;42.848;25.468;2023-07-31T22:19:49;25.02;;;20.20;;
37067;SDS011;22982;42.848;25.468;2023-07-31T22:24:52;27.83;;;21.10;;
37067;SDS011;22982;42.848;25.468;2023-07-31T22:29:54;23.75;;;20.02;;
37067;SDS011;22982;42.848;25.468;2023-07-31T22:34:56;24.83;;;19.60;;
37067;SDS011;22982;42.848;25.468;2023-07-31T22:39:59;29.35;;;21.08;;
37067;SDS011;22982;42.848;25.468;2023-07-31T22:45:01;23.88;;;19.05;;
37067;SDS011;22982;42.848;25.468;2023-07-31T22:50:05;23.95;;;19.38;;
37067;SDS011;22982;42.848;25.468;2023-07-31T22:55:08;21.98;;;19.08;;
37067;SDS011;22982;42.848;25.468;2023-07-31T23:00:11;22.30;;;18.70;;
37067;SDS011;22982;42.848;25.468;2023-07-31T23:05:14;21.67;;;18.02;;
37067;SDS011;22982;42.848;25.468;2023-07-31T23:10:17;22.00;;;18.25;;
37067;SDS011;22982;42.848;25.468;2023-07-31T23:15:20;25.02;;;21.35;;
37067;SDS011;22982;42.848;25.468;2023-07-31T23:20:22;26.33;;;21.23;;
37067;SDS011;22982;42.848;25.468;2023-07-31T23:25:25;30.55;;;22.67;;
37067;SDS011;22982;42.848;25.468;2023-07-31T23:30:28;28.38;;;23.02;;
37067;SDS011;22982;42.848;25.468;2023-07-31T23:35:30;28.08;;;23.05;;
37067;SDS011;22982;42.848;25.468;2023-07-31T23:40:34;25.92;;;21.20;;
37067;SDS011;22982;42.848;25.468;2023-07-31T23:45:37;26.35;;;22.33;;
37067;SDS011;22982;42.848;25.468;2023-07-31T23:50:42;26.85;;;20.80;;
37067;SDS011;22982;42.848;25.468;2023-07-31T23:55:45;21.90;;;19.17;;
